sensor_id;sensor_type;location;lat;lon;timestamp;temperature;humidity
47626;DHT22;33342;45.574;9.252;2023-03-14T00:01:33;14.40;99.90
47626;DHT22;33342;45.574;9.252;2023-03-14T00:04:00;14.40;99.90
47626;DHT22;33342;45.574;9.252;2023-03-14T00:06:27;14.40;99.90
47626;DHT22;33342;45.574;9.252;2023-03-14T00:08:54;14.40;99.90
47626;DHT22;33342;45.574;9.252;2023-03-14T00:11:21;14.40;99.90
47626;DHT22;33342;45.574;9.252;2023-03-14T00:13:50;14.40;99.90
47626;DHT22;33342;45.574;9.252;2023-03-14T00:16:17;14.40;99.90
47626;DHT22;33342;45.574;9.252;2023-03-14T00:18:45;14.40;99.90
47626;DHT22;33342;45.574;9.252;2023-03-14T00:21:12;14.30;99.90
47626;DHT22;33342;45.574;9.252;2023-03-14T00:23:41;14.30;99.90
47626;DHT22;33342;45.574;9.252;2023-03-14T00:26:14;14.30;99.90
47626;DHT22;33342;45.574;9.252;2023-03-14T00:28:44;14.30;99.90
47626;DHT22;33342;45.574;9.252;2023-03-14T00:31:14;14.30;99.90
47626;DHT22;33342;45.574;9.252;2023-03-14T00:33:42;14.30;99.90
47626;DHT22;33342;45.574;9.252;2023-03-14T00:36:13;14.20;99.90
47626;DHT22;33342;45.574;9.252;2023-03-14T00:38:41;14.20;99.90
47626;DHT22;33342;45.574;9.252;2023-03-14T00:41:14;14.20;99.90
47626;DHT22;33342;45.574;9.252;2023-03-14T00:43:42;14.20;99.90
47626;DHT22;33342;45.574;9.252;2023-03-14T00:46:09;14.20;99.90
47626;DHT22;33342;45.574;9.252;2023-03-14T00:48:37;14.10;99.90
47626;DHT22;33342;45.574;9.252;2023-03-14T00:51:05;14.10;99.90
47626;DHT22;33342;45.574;9.252;2023-03-14T00:53:38;14.10;99.90
47626;DHT22;33342;45.574;9.252;2023-03-14T00:56:07;14.10;99.90
47626;DHT22;33342;45.574;9.252;2023-03-14T00:58:35;14.10;99.90
47626;DHT22;33342;45.574;9.252;2023-03-14T01:01:07;14.10;99.90
47626;DHT22;33342;45.574;9.252;2023-03-14T01:03:34;14.10;99.90
47626;DHT22;33342;45.574;9.252;2023-03-14T01:06:15;14.10;99.90
47626;DHT22;33342;45.574;9.252;2023-03-14T01:08:43;14.10;99.90
47626;DHT22;33342;45.574;9.252;2023-03-14T01:11:23;14.10;99.90
47626;DHT22;33342;45.574;9.252;2023-03-14T01:13:50;14.10;99.90
47626;DHT22;33342;45.574;9.252;2023-03-14T01:16:19;14.10;99.90
47626;DHT22;33342;45.574;9.252;2023-03-14T01:18:47;14.00;99.90
47626;DHT22;33342;45.574;9.252;2023-03-14T01:21:17;14.00;99.90
47626;DHT22;33342;45.574;9.252;2023-03-14T01:23:45;14.00;99.90
47626;DHT22;33342;45.574;9.252;2023-03-14T01:26:14;14.00;99.90
47626;DHT22;33342;45.574;9.252;2023-03-14T01:28:42;14.00;99.90
47626;DHT22;33342;45.574;9.252;2023-03-14T01:31:10;14.00;99.90
47626;DHT22;33342;45.574;9.252;2023-03-14T01:33:39;14.00;99.90
47626;DHT22;33342;45.574;9.252;2023-03-14T01:36:07;14.00;99.90
47626;DHT22;33342;45.574;9.252;2023-03-14T01:38:36;14.00;99.90
47626;DHT22;33342;45.574;9.252;2023-03-14T01:41:06;14.10;99.90
47626;DHT22;33342;45.574;9.252;2023-03-14T01:43:34;14.00;99.90
47626;DHT22;33342;45.574;9.252;2023-03-14T01:48:47;14.00;99.90
47626;DHT22;33342;45.574;9.252;2023-03-14T01:51:24;14.00;99.90
47626;DHT22;33342;45.574;9.252;2023-03-14T01:53:54;14.00;99.90
47626;DHT22;33342;45.574;9.252;2023-03-14T01:56:24;14.00;99.90
47626;DHT22;33342;45.574;9.252;2023-03-14T01:58:52;14.00;99.90
47626;DHT22;33342;45.574;9.252;2023-03-14T02:01:21;14.00;99.90
47626;DHT22;33342;45.574;9.252;2023-03-14T02:03:54;14.00;99.90
47626;DHT22;33342;45.574;9.252;2023-03-14T02:06:26;14.00;99.90
47626;DHT22;33342;45.574;9.252;2023-03-14T02:09:00;14.00;99.90
47626;DHT22;33342;45.574;9.252;2023-03-14T02:11:34;14.00;99.90
47626;DHT22;33342;45.574;9.252;2023-03-14T02:14:07;14.00;99.90
47626;DHT22;33342;45.574;9.252;2023-03-14T02:16:58;13.90;99.90
47626;DHT22;33342;45.574;9.252;2023-03-14T02:20:03;13.90;99.90
47626;DHT22;33342;45.574;9.252;2023-03-14T02:22:39;13.90;99.90
47626;DHT22;33342;45.574;9.252;2023-03-14T02:27:43;13.90;99.90
47626;DHT22;33342;45.574;9.252;2023-03-14T02:30:19;13.90;99.90
47626;DHT22;33342;45.574;9.252;2023-03-14T02:32:52;13.90;99.90
47626;DHT22;33342;45.574;9.252;2023-03-14T02:35:47;13.90;99.90
47626;DHT22;33342;45.574;9.252;2023-03-14T02:41:00;13.90;99.90
47626;DHT22;33342;45.574;9.252;2023-03-14T02:43:29;13.80;99.90
47626;DHT22;33342;45.574;9.252;2023-03-14T02:46:01;13.90;99.90
47626;DHT22;33342;45.574;9.252;2023-03-14T02:48:34;13.90;99.90
47626;DHT22;33342;45.574;9.252;2023-03-14T02:51:04;13.90;99.90
47626;DHT22;33342;45.574;9.252;2023-03-14T02:53:34;13.90;99.90
47626;DHT22;33342;45.574;9.252;2023-03-14T02:56:07;13.90;99.90
47626;DHT22;33342;45.574;9.252;2023-03-14T02:58:35;13.90;99.90
47626;DHT22;33342;45.574;9.252;2023-03-14T03:01:17;13.90;99.90
47626;DHT22;33342;45.574;9.252;2023-03-14T03:03:44;13.90;99.90
47626;DHT22;33342;45.574;9.252;2023-03-14T03:06:11;13.90;99.90
47626;DHT22;33342;45.574;9.252;2023-03-14T03:08:38;13.90;99.90
47626;DHT22;33342;45.574;9.252;2023-03-14T03:11:06;13.90;99.90
47626;DHT22;33342;45.574;9.252;2023-03-14T03:13:34;13.90;99.90
47626;DHT22;33342;45.574;9.252;2023-03-14T03:16:04;14.00;99.90
47626;DHT22;33342;45.574;9.252;2023-03-14T03:18:33;14.00;99.90
47626;DHT22;33342;45.574;9.252;2023-03-14T03:21:02;14.00;99.90
47626;DHT22;33342;45.574;9.252;2023-03-14T03:23:30;14.00;99.90
47626;DHT22;33342;45.574;9.252;2023-03-14T03:25:57;14.00;99.90
47626;DHT22;33342;45.574;9.252;2023-03-14T03:28:24;14.00;99.90
47626;DHT22;33342;45.574;9.252;2023-03-14T03:30:55;14.00;99.90
47626;DHT22;33342;45.574;9.252;2023-03-14T03:33:22;14.00;99.90
47626;DHT22;33342;45.574;9.252;2023-03-14T03:35:51;14.00;99.90
47626;DHT22;33342;45.574;9.252;2023-03-14T03:38:28;14.00;99.90
47626;DHT22;33342;45.574;9.252;2023-03-14T03:40:57;14.00;99.90
47626;DHT22;33342;45.574;9.252;2023-03-14T03:43:26;14.00;99.90
47626;DHT22;33342;45.574;9.252;2023-03-14T03:45:54;14.00;99.90
47626;DHT22;33342;45.574;9.252;2023-03-14T03:48:23;14.00;99.90
47626;DHT22;33342;45.574;9.252;2023-03-14T03:50:50;14.00;99.90
47626;DHT22;33342;45.574;9.252;2023-03-14T03:53:20;14.00;99.90
47626;DHT22;33342;45.574;9.252;2023-03-14T03:56:00;14.00;99.90
47626;DHT22;33342;45.574;9.252;2023-03-14T03:58:28;14.00;99.90
47626;DHT22;33342;45.574;9.252;2023-03-14T04:00:56;13.90;99.90
47626;DHT22;33342;45.574;9.252;2023-03-14T04:03:23;13.90;99.90
47626;DHT22;33342;45.574;9.252;2023-03-14T04:06:05;13.90;99.90
47626;DHT22;33342;45.574;9.252;2023-03-14T04:08:35;13.80;99.90
47626;DHT22;33342;45.574;9.252;2023-03-14T04:11:03;13.90;99.90
47626;DHT22;33342;45.574;9.252;2023-03-14T04:13:45;13.90;99.90
47626;DHT22;33342;45.574;9.252;2023-03-14T04:16:23;13.90;99.90
47626;DHT22;33342;45.574;9.252;2023-03-14T04:18:55;13.90;99.90
47626;DHT22;33342;45.574;9.252;2023-03-14T04:21:23;13.90;99.90
47626;DHT22;33342;45.574;9.252;2023-03-14T04:23:54;13.90;99.90
47626;DHT22;33342;45.574;9.252;2023-03-14T04:26:23;13.90;99.90
47626;DHT22;33342;45.574;9.252;2023-03-14T04:28:50;13.80;99.90
47626;DHT22;33342;45.574;9.252;2023-03-14T04:31:20;13.80;99.90
47626;DHT22;33342;45.574;9.252;2023-03-14T04:33:48;13.80;99.90
47626;DHT22;33342;45.574;9.252;2023-03-14T04:36:21;13.70;99.90
47626;DHT22;33342;45.574;9.252;2023-03-14T04:38:48;13.70;99.90
47626;DHT22;33342;45.574;9.252;2023-03-14T04:41:19;13.70;99.90
47626;DHT22;33342;45.574;9.252;2023-03-14T04:43:46;13.70;99.90
47626;DHT22;33342;45.574;9.252;2023-03-14T04:46:13;13.70;99.90
47626;DHT22;33342;45.574;9.252;2023-03-14T04:48:41;13.80;99.90
47626;DHT22;33342;45.574;9.252;2023-03-14T04:51:08;13.70;99.90
47626;DHT22;33342;45.574;9.252;2023-03-14T04:53:35;13.70;99.90
47626;DHT22;33342;45.574;9.252;2023-03-14T04:56:08;13.70;99.90
47626;DHT22;33342;45.574;9.252;2023-03-14T04:58:37;13.70;99.90
47626;DHT22;33342;45.574;9.252;2023-03-14T05:01:06;13.70;99.90
47626;DHT22;33342;45.574;9.252;2023-03-14T05:03:35;13.60;99.90
47626;DHT22;33342;45.574;9.252;2023-03-14T05:06:34;13.60;99.90
47626;DHT22;33342;45.574;9.252;2023-03-14T05:09:27;13.50;99.90
47626;DHT22;33342;45.574;9.252;2023-03-14T05:12:03;13.50;99.90
47626;DHT22;33342;45.574;9.252;2023-03-14T05:14:35;13.50;99.90
47626;DHT22;33342;45.574;9.252;2023-03-14T05:17:12;13.50;99.90
47626;DHT22;33342;45.574;9.252;2023-03-14T05:20:09;13.50;99.90
47626;DHT22;33342;45.574;9.252;2023-03-14T05:23:09;13.50;99.90
47626;DHT22;33342;45.574;9.252;2023-03-14T05:26:02;13.40;99.90
47626;DHT22;33342;45.574;9.252;2023-03-14T05:28:50;13.40;99.90
47626;DHT22;33342;45.574;9.252;2023-03-14T05:31:27;13.40;99.90
47626;DHT22;33342;45.574;9.252;2023-03-14T05:34:07;13.40;99.90
47626;DHT22;33342;45.574;9.252;2023-03-14T05:37:00;13.40;99.90
47626;DHT22;33342;45.574;9.252;2023-03-14T05:39:38;13.30;99.90
47626;DHT22;33342;45.574;9.252;2023-03-14T05:42:31;13.30;99.90
47626;DHT22;33342;45.574;9.252;2023-03-14T05:45:14;13.30;99.90
47626;DHT22;33342;45.574;9.252;2023-03-14T05:48:03;13.20;99.90
47626;DHT22;33342;45.574;9.252;2023-03-14T05:51:02;13.20;99.90
47626;DHT22;33342;45.574;9.252;2023-03-14T05:53:37;13.20;99.90
47626;DHT22;33342;45.574;9.252;2023-03-14T05:56:23;13.20;99.90
47626;DHT22;33342;45.574;9.252;2023-03-14T05:59:00;13.20;99.90
47626;DHT22;33342;45.574;9.252;2023-03-14T06:01:36;13.30;99.90
47626;DHT22;33342;45.574;9.252;2023-03-14T06:04:12;13.30;99.90
47626;DHT22;33342;45.574;9.252;2023-03-14T06:06:40;13.30;99.90
47626;DHT22;33342;45.574;9.252;2023-03-14T06:09:09;13.30;99.90
47626;DHT22;33342;45.574;9.252;2023-03-14T06:11:39;13.30;99.90
47626;DHT22;33342;45.574;9.252;2023-03-14T06:14:07;13.30;99.90
47626;DHT22;33342;45.574;9.252;2023-03-14T06:16:35;13.30;99.90
47626;DHT22;33342;45.574;9.252;2023-03-14T06:19:03;13.40;99.90
47626;DHT22;33342;45.574;9.252;2023-03-14T06:21:30;13.30;99.90
47626;DHT22;33342;45.574;9.252;2023-03-14T06:24:00;13.40;99.90
47626;DHT22;33342;45.574;9.252;2023-03-14T06:26:29;13.40;99.90
47626;DHT22;33342;45.574;9.252;2023-03-14T06:28:56;13.40;99.90
47626;DHT22;33342;45.574;9.252;2023-03-14T06:31:24;13.40;99.90
47626;DHT22;33342;45.574;9.252;2023-03-14T06:33:56;13.50;99.90
47626;DHT22;33342;45.574;9.252;2023-03-14T06:36:29;13.50;99.90
47626;DHT22;33342;45.574;9.252;2023-03-14T06:38:57;13.50;99.90
47626;DHT22;33342;45.574;9.252;2023-03-14T06:41:26;13.50;99.90
47626;DHT22;33342;45.574;9.252;2023-03-14T06:43:53;13.50;99.90
47626;DHT22;33342;45.574;9.252;2023-03-14T06:46:22;13.60;99.90
47626;DHT22;33342;45.574;9.252;2023-03-14T06:48:49;13.60;99.90
47626;DHT22;33342;45.574;9.252;2023-03-14T06:51:17;13.60;99.90
47626;DHT22;33342;45.574;9.252;2023-03-14T06:53:44;13.60;99.90
47626;DHT22;33342;45.574;9.252;2023-03-14T06:56:14;13.60;99.90
47626;DHT22;33342;45.574;9.252;2023-03-14T06:58:41;13.70;99.90
47626;DHT22;33342;45.574;9.252;2023-03-14T07:01:20;13.70;99.90
47626;DHT22;33342;45.574;9.252;2023-03-14T07:03:48;13.70;99.90
47626;DHT22;33342;45.574;9.252;2023-03-14T07:06:15;13.70;99.90
47626;DHT22;33342;45.574;9.252;2023-03-14T07:08:42;13.70;99.90
47626;DHT22;33342;45.574;9.252;2023-03-14T07:11:09;13.70;99.90
47626;DHT22;33342;45.574;9.252;2023-03-14T07:13:39;13.70;99.90
47626;DHT22;33342;45.574;9.252;2023-03-14T07:16:07;13.80;99.90
47626;DHT22;33342;45.574;9.252;2023-03-14T07:18:36;13.80;99.90
47626;DHT22;33342;45.574;9.252;2023-03-14T07:21:06;13.80;99.90
47626;DHT22;33342;45.574;9.252;2023-03-14T07:23:33;13.80;99.90
47626;DHT22;33342;45.574;9.252;2023-03-14T07:26:00;13.90;99.90
47626;DHT22;33342;45.574;9.252;2023-03-14T07:28:29;13.90;99.90
47626;DHT22;33342;45.574;9.252;2023-03-14T07:31:07;13.90;99.90
47626;DHT22;33342;45.574;9.252;2023-03-14T07:33:34;13.90;99.90
47626;DHT22;33342;45.574;9.252;2023-03-14T07:36:02;14.00;99.90
47626;DHT22;33342;45.574;9.252;2023-03-14T07:38:30;14.00;99.90
47626;DHT22;33342;45.574;9.252;2023-03-14T07:41:31;14.00;99.90
47626;DHT22;33342;45.574;9.252;2023-03-14T07:44:21;14.10;99.90
47626;DHT22;33342;45.574;9.252;2023-03-14T07:46:48;14.10;99.90
47626;DHT22;33342;45.574;9.252;2023-03-14T07:49:15;14.20;99.90
47626;DHT22;33342;45.574;9.252;2023-03-14T07:51:42;14.20;99.90
47626;DHT22;33342;45.574;9.252;2023-03-14T07:54:10;14.10;99.90
47626;DHT22;33342;45.574;9.252;2023-03-14T07:56:37;14.10;99.90
47626;DHT22;33342;45.574;9.252;2023-03-14T07:59:04;14.00;99.90
47626;DHT22;33342;45.574;9.252;2023-03-14T08:01:31;14.00;99.90
47626;DHT22;33342;45.574;9.252;2023-03-14T08:03:58;14.00;99.90
47626;DHT22;33342;45.574;9.252;2023-03-14T08:06:25;14.00;99.90
47626;DHT22;33342;45.574;9.252;2023-03-14T08:08:52;14.00;99.90
47626;DHT22;33342;45.574;9.252;2023-03-14T08:11:19;14.00;99.90
47626;DHT22;33342;45.574;9.252;2023-03-14T08:13:47;14.00;99.90
47626;DHT22;33342;45.574;9.252;2023-03-14T08:16:17;14.00;99.90
47626;DHT22;33342;45.574;9.252;2023-03-14T08:18:44;14.10;99.90
47626;DHT22;33342;45.574;9.252;2023-03-14T08:21:12;14.10;99.90
47626;DHT22;33342;45.574;9.252;2023-03-14T08:23:40;14.10;99.90
47626;DHT22;33342;45.574;9.252;2023-03-14T08:26:07;14.10;99.90
47626;DHT22;33342;45.574;9.252;2023-03-14T08:28:34;14.10;99.90
47626;DHT22;33342;45.574;9.252;2023-03-14T08:31:01;14.10;99.90
47626;DHT22;33342;45.574;9.252;2023-03-14T08:33:31;14.10;99.90
47626;DHT22;33342;45.574;9.252;2023-03-14T08:36:00;14.10;99.90
47626;DHT22;33342;45.574;9.252;2023-03-14T08:38:27;14.10;99.90
47626;DHT22;33342;45.574;9.252;2023-03-14T08:40:58;14.20;99.90
47626;DHT22;33342;45.574;9.252;2023-03-14T08:43:27;14.20;99.90
47626;DHT22;33342;45.574;9.252;2023-03-14T08:46:02;14.20;99.90
47626;DHT22;33342;45.574;9.252;2023-03-14T08:48:29;14.20;99.90
47626;DHT22;33342;45.574;9.252;2023-03-14T08:51:11;14.20;99.90
47626;DHT22;33342;45.574;9.252;2023-03-14T08:53:40;14.30;99.90
47626;DHT22;33342;45.574;9.252;2023-03-14T08:56:08;14.30;99.90
47626;DHT22;33342;45.574;9.252;2023-03-14T08:58:37;14.30;99.90
47626;DHT22;33342;45.574;9.252;2023-03-14T09:01:07;14.30;99.90
47626;DHT22;33342;45.574;9.252;2023-03-14T09:03:35;14.20;99.90
47626;DHT22;33342;45.574;9.252;2023-03-14T09:06:06;14.20;99.90
47626;DHT22;33342;45.574;9.252;2023-03-14T09:08:35;14.20;99.90
47626;DHT22;33342;45.574;9.252;2023-03-14T09:11:08;14.20;99.90
47626;DHT22;33342;45.574;9.252;2023-03-14T09:13:36;14.30;99.90
47626;DHT22;33342;45.574;9.252;2023-03-14T09:16:03;14.30;99.90
47626;DHT22;33342;45.574;9.252;2023-03-14T09:18:30;14.40;99.90
47626;DHT22;33342;45.574;9.252;2023-03-14T09:20:57;14.40;99.90
47626;DHT22;33342;45.574;9.252;2023-03-14T09:23:24;14.40;99.90
47626;DHT22;33342;45.574;9.252;2023-03-14T09:25:55;14.40;99.90
47626;DHT22;33342;45.574;9.252;2023-03-14T09:28:23;14.50;99.90
47626;DHT22;33342;45.574;9.252;2023-03-14T09:30:51;14.50;99.90
47626;DHT22;33342;45.574;9.252;2023-03-14T09:33:18;14.50;99.90
47626;DHT22;33342;45.574;9.252;2023-03-14T09:35:45;14.60;99.90
47626;DHT22;33342;45.574;9.252;2023-03-14T09:38:12;14.60;99.90
47626;DHT22;33342;45.574;9.252;2023-03-14T09:40:39;14.70;99.90
47626;DHT22;33342;45.574;9.252;2023-03-14T09:43:10;14.70;99.90
47626;DHT22;33342;45.574;9.252;2023-03-14T09:45:40;14.80;99.90
47626;DHT22;33342;45.574;9.252;2023-03-14T09:48:24;14.90;99.90
47626;DHT22;33342;45.574;9.252;2023-03-14T09:50:58;14.90;99.90
47626;DHT22;33342;45.574;9.252;2023-03-14T09:53:33;15.00;99.90
47626;DHT22;33342;45.574;9.252;2023-03-14T09:56:01;14.90;99.90
47626;DHT22;33342;45.574;9.252;2023-03-14T09:58:29;14.90;99.90
47626;DHT22;33342;45.574;9.252;2023-03-14T10:00:58;14.90;99.90
47626;DHT22;33342;45.574;9.252;2023-03-14T10:03:35;14.80;99.90
47626;DHT22;33342;45.574;9.252;2023-03-14T10:06:12;14.80;99.90
47626;DHT22;33342;45.574;9.252;2023-03-14T10:08:42;14.90;99.90
47626;DHT22;33342;45.574;9.252;2023-03-14T10:11:15;15.00;99.90
47626;DHT22;33342;45.574;9.252;2023-03-14T10:14:02;15.00;99.90
47626;DHT22;33342;45.574;9.252;2023-03-14T10:16:36;15.20;99.90
47626;DHT22;33342;45.574;9.252;2023-03-14T10:19:06;15.30;99.90
47626;DHT22;33342;45.574;9.252;2023-03-14T10:21:38;15.40;99.90
47626;DHT22;33342;45.574;9.252;2023-03-14T10:24:31;15.40;99.90
47626;DHT22;33342;45.574;9.252;2023-03-14T10:29:33;15.50;99.90
47626;DHT22;33342;45.574;9.252;2023-03-14T10:32:04;15.60;99.90
47626;DHT22;33342;45.574;9.252;2023-03-14T10:34:34;15.60;99.90
47626;DHT22;33342;45.574;9.252;2023-03-14T10:37:20;15.60;99.90
47626;DHT22;33342;45.574;9.252;2023-03-14T10:39:53;15.70;99.90
47626;DHT22;33342;45.574;9.252;2023-03-14T10:42:30;15.70;99.90
47626;DHT22;33342;45.574;9.252;2023-03-14T10:45:00;15.80;99.90
47626;DHT22;33342;45.574;9.252;2023-03-14T10:47:32;15.80;99.90
47626;DHT22;33342;45.574;9.252;2023-03-14T10:50:26;15.70;99.90
47626;DHT22;33342;45.574;9.252;2023-03-14T10:52:55;15.80;99.90
47626;DHT22;33342;45.574;9.252;2023-03-14T10:55:42;15.70;99.90
47626;DHT22;33342;45.574;9.252;2023-03-14T10:58:25;15.80;99.90
47626;DHT22;33342;45.574;9.252;2023-03-14T11:03:49;15.90;99.90
47626;DHT22;33342;45.574;9.252;2023-03-14T11:06:44;15.90;99.90
47626;DHT22;33342;45.574;9.252;2023-03-14T11:09:29;16.00;99.90
47626;DHT22;33342;45.574;9.252;2023-03-14T11:14:59;16.00;99.90
47626;DHT22;33342;45.574;9.252;2023-03-14T11:17:38;16.10;99.90
47626;DHT22;33342;45.574;9.252;2023-03-14T11:20:32;16.20;99.90
47626;DHT22;33342;45.574;9.252;2023-03-14T11:23:23;16.30;99.90
47626;DHT22;33342;45.574;9.252;2023-03-14T11:26:07;16.40;99.90
47626;DHT22;33342;45.574;9.252;2023-03-14T11:28:38;16.50;99.90
47626;DHT22;33342;45.574;9.252;2023-03-14T11:31:29;16.50;99.90
47626;DHT22;33342;45.574;9.252;2023-03-14T11:36:31;16.70;99.90
47626;DHT22;33342;45.574;9.252;2023-03-14T11:39:00;16.70;99.90
47626;DHT22;33342;45.574;9.252;2023-03-14T11:41:37;16.70;99.90
47626;DHT22;33342;45.574;9.252;2023-03-14T11:44:14;16.70;99.90
47626;DHT22;33342;45.574;9.252;2023-03-14T11:46:48;16.70;99.90
47626;DHT22;33342;45.574;9.252;2023-03-14T11:49:21;16.70;99.90
47626;DHT22;33342;45.574;9.252;2023-03-14T11:51:54;16.70;99.90
47626;DHT22;33342;45.574;9.252;2023-03-14T11:54:44;16.70;99.90
47626;DHT22;33342;45.574;9.252;2023-03-14T11:57:16;16.80;99.90
47626;DHT22;33342;45.574;9.252;2023-03-14T12:00:13;16.80;99.90
47626;DHT22;33342;45.574;9.252;2023-03-14T12:02:46;16.90;99.90
47626;DHT22;33342;45.574;9.252;2023-03-14T12:10:54;17.10;99.90
47626;DHT22;33342;45.574;9.252;2023-03-14T12:13:22;17.10;99.90
47626;DHT22;33342;45.574;9.252;2023-03-14T12:16:00;17.00;99.90
47626;DHT22;33342;45.574;9.252;2023-03-14T12:18:38;16.90;99.90
47626;DHT22;33342;45.574;9.252;2023-03-14T12:21:08;16.90;99.90
47626;DHT22;33342;45.574;9.252;2023-03-14T12:23:53;17.00;99.90
47626;DHT22;33342;45.574;9.252;2023-03-14T12:26:25;17.10;99.90
47626;DHT22;33342;45.574;9.252;2023-03-14T12:49:46;17.60;99.90
47626;DHT22;33342;45.574;9.252;2023-03-14T12:52:22;17.60;99.90
47626;DHT22;33342;45.574;9.252;2023-03-14T12:55:33;17.50;99.90
47626;DHT22;33342;45.574;9.252;2023-03-14T12:58:27;17.50;99.90
47626;DHT22;33342;45.574;9.252;2023-03-14T13:00:59;17.50;99.90
47626;DHT22;33342;45.574;9.252;2023-03-14T13:04:02;17.40;99.90
47626;DHT22;33342;45.574;9.252;2023-03-14T13:12:08;17.50;99.90
47626;DHT22;33342;45.574;9.252;2023-03-14T13:14:41;17.50;99.90
47626;DHT22;33342;45.574;9.252;2023-03-14T13:17:12;17.60;99.90
47626;DHT22;33342;45.574;9.252;2023-03-14T13:20:10;17.60;99.90
47626;DHT22;33342;45.574;9.252;2023-03-14T13:22:39;17.60;99.90
47626;DHT22;33342;45.574;9.252;2023-03-14T13:25:12;17.60;99.90
47626;DHT22;33342;45.574;9.252;2023-03-14T13:27:40;17.60;99.90
47626;DHT22;33342;45.574;9.252;2023-03-14T13:32:48;17.50;99.90
47626;DHT22;33342;45.574;9.252;2023-03-14T13:35:28;17.50;99.90
47626;DHT22;33342;45.574;9.252;2023-03-14T13:38:00;17.50;99.90
47626;DHT22;33342;45.574;9.252;2023-03-14T13:40:38;17.40;99.90
47626;DHT22;33342;45.574;9.252;2023-03-14T13:46:06;17.30;99.90
47626;DHT22;33342;45.574;9.252;2023-03-14T13:48:46;17.20;99.90
47626;DHT22;33342;45.574;9.252;2023-03-14T13:51:16;17.20;99.90
47626;DHT22;33342;45.574;9.252;2023-03-14T13:53:51;17.20;99.90
47626;DHT22;33342;45.574;9.252;2023-03-14T13:56:24;17.20;99.90
47626;DHT22;33342;45.574;9.252;2023-03-14T13:58:51;17.20;99.90
47626;DHT22;33342;45.574;9.252;2023-03-14T14:03:54;17.30;99.90
47626;DHT22;33342;45.574;9.252;2023-03-14T14:08:56;17.50;99.90
47626;DHT22;33342;45.574;9.252;2023-03-14T14:11:49;17.60;99.90
47626;DHT22;33342;45.574;9.252;2023-03-14T14:15:15;17.70;99.90
47626;DHT22;33342;45.574;9.252;2023-03-14T14:17:49;17.70;99.90
47626;DHT22;33342;45.574;9.252;2023-03-14T14:20:24;17.70;99.90
47626;DHT22;33342;45.574;9.252;2023-03-14T14:22:59;17.70;99.90
47626;DHT22;33342;45.574;9.252;2023-03-14T14:25:28;17.70;99.90
47626;DHT22;33342;45.574;9.252;2023-03-14T14:27:56;17.70;99.90
47626;DHT22;33342;45.574;9.252;2023-03-14T14:30:32;17.80;99.90
47626;DHT22;33342;45.574;9.252;2023-03-14T14:33:20;17.90;99.90
47626;DHT22;33342;45.574;9.252;2023-03-14T14:35:53;18.00;99.90
47626;DHT22;33342;45.574;9.252;2023-03-14T14:38:24;18.10;99.90
47626;DHT22;33342;45.574;9.252;2023-03-14T14:40:54;18.10;99.90
47626;DHT22;33342;45.574;9.252;2023-03-14T14:43:24;18.10;99.90
47626;DHT22;33342;45.574;9.252;2023-03-14T14:45:53;18.10;99.90
47626;DHT22;33342;45.574;9.252;2023-03-14T14:48:26;18.10;99.90
47626;DHT22;33342;45.574;9.252;2023-03-14T14:51:01;18.00;99.90
47626;DHT22;33342;45.574;9.252;2023-03-14T14:53:39;18.00;99.90
47626;DHT22;33342;45.574;9.252;2023-03-14T14:56:18;18.00;99.90
47626;DHT22;33342;45.574;9.252;2023-03-14T14:58:49;18.00;99.90
47626;DHT22;33342;45.574;9.252;2023-03-14T15:01:24;18.00;99.90
47626;DHT22;33342;45.574;9.252;2023-03-14T15:03:52;18.00;99.90
47626;DHT22;33342;45.574;9.252;2023-03-14T15:06:20;18.20;99.90
47626;DHT22;33342;45.574;9.252;2023-03-14T15:08:48;18.30;99.90
47626;DHT22;33342;45.574;9.252;2023-03-14T15:11:21;18.50;99.90
47626;DHT22;33342;45.574;9.252;2023-03-14T15:13:50;18.60;99.90
47626;DHT22;33342;45.574;9.252;2023-03-14T15:16:23;18.50;99.90
47626;DHT22;33342;45.574;9.252;2023-03-14T15:18:55;18.40;99.90
47626;DHT22;33342;45.574;9.252;2023-03-14T15:21:25;18.30;99.90
47626;DHT22;33342;45.574;9.252;2023-03-14T15:23:53;18.30;99.90
47626;DHT22;33342;45.574;9.252;2023-03-14T15:26:22;18.20;99.90
47626;DHT22;33342;45.574;9.252;2023-03-14T15:28:50;18.10;99.90
47626;DHT22;33342;45.574;9.252;2023-03-14T15:31:17;18.00;99.90
47626;DHT22;33342;45.574;9.252;2023-03-14T15:33:45;17.70;99.90
47626;DHT22;33342;45.574;9.252;2023-03-14T15:36:30;17.60;99.90
47626;DHT22;33342;45.574;9.252;2023-03-14T15:39:00;17.50;99.90
47626;DHT22;33342;45.574;9.252;2023-03-14T15:41:27;17.30;99.90
47626;DHT22;33342;45.574;9.252;2023-03-14T15:43:55;17.20;99.90
47626;DHT22;33342;45.574;9.252;2023-03-14T15:46:22;17.10;99.90
47626;DHT22;33342;45.574;9.252;2023-03-14T15:48:50;17.00;99.90
47626;DHT22;33342;45.574;9.252;2023-03-14T15:51:18;16.90;99.90
47626;DHT22;33342;45.574;9.252;2023-03-14T15:53:45;16.80;99.90
47626;DHT22;33342;45.574;9.252;2023-03-14T15:56:17;16.80;99.90
47626;DHT22;33342;45.574;9.252;2023-03-14T15:58:45;16.70;99.90
47626;DHT22;33342;45.574;9.252;2023-03-14T16:01:14;16.70;99.90
47626;DHT22;33342;45.574;9.252;2023-03-14T16:03:46;16.70;99.90
47626;DHT22;33342;45.574;9.252;2023-03-14T16:06:13;16.60;99.90
47626;DHT22;33342;45.574;9.252;2023-03-14T16:08:41;16.60;99.90
47626;DHT22;33342;45.574;9.252;2023-03-14T16:11:11;16.50;99.90
47626;DHT22;33342;45.574;9.252;2023-03-14T16:13:38;16.50;99.90
47626;DHT22;33342;45.574;9.252;2023-03-14T16:16:06;16.50;99.90
47626;DHT22;33342;45.574;9.252;2023-03-14T16:18:35;16.50;99.90
47626;DHT22;33342;45.574;9.252;2023-03-14T16:21:06;16.50;99.90
47626;DHT22;33342;45.574;9.252;2023-03-14T16:23:34;16.50;99.90
47626;DHT22;33342;45.574;9.252;2023-03-14T16:26:06;16.40;99.90
47626;DHT22;33342;45.574;9.252;2023-03-14T16:28:34;16.40;99.90
47626;DHT22;33342;45.574;9.252;2023-03-14T16:31:07;16.30;99.90
47626;DHT22;33342;45.574;9.252;2023-03-14T16:33:35;16.30;99.90
47626;DHT22;33342;45.574;9.252;2023-03-14T16:36:04;16.20;99.90
47626;DHT22;33342;45.574;9.252;2023-03-14T16:38:35;16.20;99.90
47626;DHT22;33342;45.574;9.252;2023-03-14T16:41:23;16.20;99.90
47626;DHT22;33342;45.574;9.252;2023-03-14T16:43:50;16.20;99.90
47626;DHT22;33342;45.574;9.252;2023-03-14T16:46:20;16.20;99.90
47626;DHT22;33342;45.574;9.252;2023-03-14T16:48:48;16.10;99.90
47626;DHT22;33342;45.574;9.252;2023-03-14T16:51:15;16.10;99.90
47626;DHT22;33342;45.574;9.252;2023-03-14T16:53:43;16.10;99.90
47626;DHT22;33342;45.574;9.252;2023-03-14T16:56:11;16.10;99.90
47626;DHT22;33342;45.574;9.252;2023-03-14T16:58:38;16.00;99.90
47626;DHT22;33342;45.574;9.252;2023-03-14T17:01:10;16.00;99.90
47626;DHT22;33342;45.574;9.252;2023-03-14T17:03:42;16.00;99.90
47626;DHT22;33342;45.574;9.252;2023-03-14T17:06:11;15.90;99.90